PWSweather.com
Personal Weather Stations
Station Observations
01979
Ravne Pri CerknemSI 5282

Ravne Pri CerknemSI 5282

Lat: 46.1213916, Lon: 13.952774299999987

Elevation: 2244.094488

Station Type: Techo Line WS2307

www.vremenska.postaja.andre.si/

High Low Average
Temperature 46.0°F7.8°C 37.8°F3.2°C 42.6°F5.9°C
Dew Point 44.0°F6.7°C 36.2°F2.3°C 40.8°F4.9°C
Winds 15.9 mph 25.6 kmh Calm Calm 4.0 mph SE6.4 kmh SE
Wind Gusts 24.6 mph39.6 kmh -- 8.0 mph12.9 kmh
Humidity 96% 90% 93%
Pressure 29.62 in1003.0 mb 29.49 in998.6 mb -
Precipitation 1.88 in47.8 mm - -
Hour Temp Dew Point Humidity Winds Wind Gusts Pressure Precip Precip Rate Daily Precip Total
12:00 AM 45.7°F7.6°C 43.8°F6.6°C 93% 4.9 mph SSE7.9 kmh SSE 9.6 mph15.4 kmh 29.54 in1000.3 mb 0.08 in2.0 mm 0.00 in0.0 mm 0.08 in2.0 mm
12:10 AM 46.0°F7.8°C 43.8°F6.6°C 92% 4.4 mph S7.1 kmh S 6.5 mph10.5 kmh 29.54 in1000.3 mb 0.10 in2.5 mm 0.12 in3.0 mm 0.02 in0.5 mm
12:20 AM 45.7°F7.6°C 43.5°F6.4°C 92% 2.3 mph S3.7 kmh S 10.7 mph17.2 kmh 29.54 in1000.3 mb 0.10 in2.5 mm 0.00 in0.0 mm 0.04 in1.0 mm
12:30 AM 45.7°F7.6°C 43.5°F6.4°C 92% 2.1 mph ENE3.4 kmh ENE 6.0 mph9.7 kmh 29.54 in1000.3 mb 0.10 in2.5 mm 0.00 in0.0 mm 0.04 in1.0 mm
12:40 AM 45.7°F7.6°C 43.5°F6.4°C 92% 3.4 mph SSE5.5 kmh SSE 11.0 mph17.7 kmh 29.53 in1000.0 mb 0.12 in3.0 mm 0.12 in3.0 mm 0.08 in2.0 mm
12:50 AM 45.5°F7.5°C 43.6°F6.4°C 93% 1.6 mph S2.6 kmh S 6.9 mph11.1 kmh 29.53 in1000.0 mb 0.10 in2.5 mm 0.00 in0.0 mm 0.08 in2.0 mm
01:00 AM 45.5°F7.5°C 43.6°F6.4°C 93% 6.7 mph SSE10.8 kmh SSE 9.4 mph15.1 kmh 29.54 in1000.3 mb 0.10 in2.5 mm 0.00 in0.0 mm 0.10 in2.5 mm
01:10 AM 45.1°F7.3°C 43.2°F6.2°C 93% 2.5 mph SSE4.0 kmh SSE 7.2 mph11.6 kmh 29.54 in1000.3 mb 0.10 in2.5 mm 0.00 in0.0 mm 0.12 in3.0 mm
01:20 AM 45.3°F7.4°C 43.4°F6.3°C 93% 5.5 mph S8.9 kmh S 9.6 mph15.4 kmh 29.54 in1000.3 mb 0.10 in2.5 mm 0.00 in0.0 mm 0.14 in3.6 mm
01:30 AM 45.5°F7.5°C 43.9°F6.6°C 94% 2.7 mph S4.3 kmh S 9.6 mph15.4 kmh 29.54 in1000.3 mb 0.10 in2.5 mm 0.00 in0.0 mm 0.14 in3.6 mm
01:40 AM 45.1°F7.3°C 43.5°F6.4°C 94% 1.1 mph SE1.8 kmh SE 5.1 mph8.2 kmh 29.55 in1000.7 mb 0.08 in2.0 mm 0.00 in0.0 mm 0.16 in4.1 mm
01:50 AM 45.1°F7.3°C 43.5°F6.4°C 94% 3.2 mph SSE5.1 kmh SSE 6.7 mph10.8 kmh 29.55 in1000.7 mb 0.08 in2.0 mm 0.00 in0.0 mm 0.16 in4.1 mm
02:00 AM 45.1°F7.3°C 43.5°F6.4°C 94% 5.8 mph S9.3 kmh S 12.8 mph20.6 kmh 29.54 in1000.3 mb 0.08 in2.0 mm 0.00 in0.0 mm 0.18 in4.6 mm
02:02 AM 45.3°F7.4°C 43.7°F6.5°C 94% 4.0 mph S6.4 kmh S 3.8 mph6.1 kmh 29.55 in1000.7 mb 0.04 in1.0 mm 0.00 in0.0 mm 0.16 in4.1 mm
02:10 AM 45.0°F7.2°C 43.1°F6.2°C 93% 5.9 mph SSE9.5 kmh SSE 11.2 mph18.0 kmh 29.54 in1000.3 mb 0.08 in2.0 mm 0.30 in7.6 mm 0.20 in5.1 mm
02:20 AM 45.1°F7.3°C 43.5°F6.4°C 94% 7.6 mph S12.2 kmh S 11.2 mph18.0 kmh 29.54 in1000.3 mb 0.08 in2.0 mm 0.00 in0.0 mm 0.22 in5.6 mm
02:30 AM 45.1°F7.3°C 43.2°F6.2°C 93% 7.5 mph SSE12.1 kmh SSE 14.3 mph23.0 kmh 29.54 in1000.3 mb 0.08 in2.0 mm 0.00 in0.0 mm 0.22 in5.6 mm
02:40 AM 45.1°F7.3°C 43.2°F6.2°C 93% 6.3 mph SE10.1 kmh SE 9.2 mph14.8 kmh 29.53 in1000.0 mb 0.08 in2.0 mm 0.00 in0.0 mm 0.24 in6.1 mm
02:50 AM 45.1°F7.3°C 43.2°F6.2°C 93% 7.5 mph SSE12.1 kmh SSE 14.5 mph23.3 kmh 29.53 in1000.0 mb 0.06 in1.5 mm 0.00 in0.0 mm 0.24 in6.1 mm
03:00 AM 45.1°F7.3°C 43.2°F6.2°C 93% 3.9 mph SSE6.3 kmh SSE 14.5 mph23.3 kmh 29.53 in1000.0 mb 0.10 in2.5 mm 0.05 in1.3 mm 0.27 in6.9 mm
03:10 AM 45.7°F7.6°C 43.5°F6.4°C 92% 10.3 mph SSE16.6 kmh SSE 15.4 mph24.8 kmh 29.52 in999.7 mb 0.06 in1.5 mm 0.00 in0.0 mm 0.27 in6.9 mm
03:20 AM 45.9°F7.7°C 43.7°F6.5°C 92% 11.3 mph SSE18.2 kmh SSE 15.4 mph24.8 kmh 29.52 in999.7 mb 0.06 in1.5 mm 0.00 in0.0 mm 0.29 in7.4 mm
03:30 AM 46.0°F7.8°C 43.8°F6.6°C 92% 8.2 mph S13.2 kmh S 15.0 mph24.1 kmh 29.52 in999.7 mb 0.08 in2.0 mm 0.12 in3.0 mm 0.31 in7.9 mm
03:40 AM 45.5°F7.5°C 43.0°F6.1°C 91% 6.9 mph S11.1 kmh S 15.0 mph24.1 kmh 29.52 in999.7 mb 0.08 in2.0 mm 0.00 in0.0 mm 0.33 in8.4 mm
03:50 AM 45.7°F7.6°C 43.2°F6.2°C 91% 5.8 mph SSE9.3 kmh SSE 13.0 mph20.9 kmh 29.51 in999.3 mb 0.08 in2.0 mm 0.00 in0.0 mm 0.33 in8.4 mm
04:00 AM 45.1°F7.3°C 42.7°F5.9°C 91% 1.7 mph SSE2.7 kmh SSE 13.0 mph20.9 kmh 29.51 in999.3 mb 0.08 in2.0 mm 0.00 in0.0 mm 0.35 in8.9 mm
04:10 AM 45.1°F7.3°C 43.0°F6.1°C 92% 2.5 mph SSE4.0 kmh SSE 5.4 mph8.7 kmh 29.51 in999.3 mb 0.10 in2.5 mm 0.12 in3.0 mm 0.37 in9.4 mm
04:20 AM 45.5°F7.5°C 43.3°F6.3°C 92% 8.1 mph SSE13.0 kmh SSE 13.4 mph21.6 kmh 29.51 in999.3 mb 0.10 in2.5 mm 0.00 in0.0 mm 0.39 in9.9 mm
04:30 AM 45.5°F7.5°C 43.0°F6.1°C 91% 1.4 mph SE2.3 kmh SE 5.8 mph9.3 kmh 29.51 in999.3 mb 0.08 in2.0 mm 0.00 in0.0 mm 0.39 in9.9 mm
04:40 AM 45.1°F7.3°C 43.0°F6.1°C 92% 2.1 mph SSE3.4 kmh SSE 9.6 mph15.4 kmh 29.51 in999.3 mb 0.08 in2.0 mm 0.00 in0.0 mm 0.41 in10.4 mm
04:50 AM 45.1°F7.3°C 43.0°F6.1°C 92% 5.4 mph S8.7 kmh S 7.8 mph12.6 kmh 29.51 in999.3 mb 0.08 in2.0 mm 0.00 in0.0 mm 0.41 in10.4 mm
05:00 AM 45.0°F7.2°C 42.8°F6.0°C 92% 5.0 mph SSE8.0 kmh SSE 13.2 mph21.2 kmh 29.51 in999.3 mb 0.08 in2.0 mm 0.00 in0.0 mm 0.43 in10.9 mm
05:10 AM 45.1°F7.3°C 43.0°F6.1°C 92% 7.7 mph SSW12.4 kmh SSW 20.1 mph32.3 kmh 29.51 in999.3 mb 0.08 in2.0 mm 0.00 in0.0 mm 0.45 in11.4 mm
05:20 AM 45.0°F7.2°C 42.8°F6.0°C 92% 11.0 mph SE17.7 kmh SE 19.0 mph30.6 kmh 29.50 in999.0 mb 0.08 in2.0 mm 0.00 in0.0 mm 0.47 in11.9 mm
05:30 AM 45.3°F7.4°C 42.8°F6.0°C 91% 12.7 mph S20.4 kmh S 19.0 mph30.6 kmh 29.50 in999.0 mb 0.08 in2.0 mm 0.00 in0.0 mm 0.47 in11.9 mm
05:40 AM 45.0°F7.2°C 42.8°F6.0°C 92% 5.3 mph SE8.5 kmh SE 9.8 mph15.8 kmh 29.50 in999.0 mb 0.08 in2.0 mm 0.00 in0.0 mm 0.49 in12.4 mm
05:50 AM 45.7°F7.6°C 43.5°F6.4°C 92% 13.9 mph S22.4 kmh S 22.4 mph36.0 kmh 29.50 in999.0 mb 0.08 in2.0 mm 0.00 in0.0 mm 0.49 in12.4 mm
06:00 AM 45.5°F7.5°C 43.0°F6.1°C 91% 15.9 mph S25.6 kmh S 22.1 mph35.6 kmh 29.49 in998.6 mb 0.06 in1.5 mm 0.00 in0.0 mm 0.49 in12.4 mm
06:10 AM 45.1°F7.3°C 42.7°F5.9°C 91% 9.0 mph S14.5 kmh S 14.5 mph23.3 kmh 29.50 in999.0 mb 0.08 in2.0 mm 0.12 in3.0 mm 0.53 in13.5 mm
06:20 AM 45.1°F7.3°C 43.0°F6.1°C 92% 5.2 mph SSE8.4 kmh SSE 11.2 mph18.0 kmh 29.49 in998.6 mb 0.06 in1.5 mm 0.00 in0.0 mm 0.53 in13.5 mm
06:30 AM 45.5°F7.5°C 43.0°F6.1°C 91% 7.5 mph S12.1 kmh S 15.9 mph25.6 kmh 29.49 in998.6 mb 0.08 in2.0 mm 0.12 in3.0 mm 0.55 in14.0 mm
06:40 AM 46.0°F7.8°C 43.6°F6.4°C 91% 11.4 mph S18.3 kmh S 22.8 mph36.7 kmh 29.49 in998.6 mb 0.06 in1.5 mm 0.00 in0.0 mm 0.55 in14.0 mm
06:50 AM 46.0°F7.8°C 43.3°F6.3°C 90% 2.9 mph WSW4.7 kmh WSW 9.2 mph14.8 kmh 29.49 in998.6 mb 0.08 in2.0 mm 0.12 in3.0 mm 0.57 in14.5 mm
07:00 AM 45.9°F7.7°C 43.4°F6.3°C 91% 9.3 mph S15.0 kmh S 17.4 mph28.0 kmh 29.49 in998.6 mb 0.10 in2.5 mm 0.02 in0.5 mm 0.59 in15.0 mm
07:10 AM 46.0°F7.8°C 43.6°F6.4°C 91% 13.8 mph S22.2 kmh S 24.6 mph39.6 kmh 29.49 in998.6 mb 0.06 in1.5 mm 0.00 in0.0 mm 0.59 in15.0 mm
07:20 AM 46.0°F7.8°C 43.6°F6.4°C 91% 10.7 mph S17.2 kmh S 15.2 mph24.5 kmh 29.49 in998.6 mb 0.08 in2.0 mm 0.12 in3.0 mm 0.61 in15.5 mm
07:30 AM 46.0°F7.8°C 43.8°F6.6°C 92% 15.7 mph S25.3 kmh S 21.7 mph34.9 kmh 29.49 in998.6 mb 0.08 in2.0 mm 0.00 in0.0 mm 0.63 in16.0 mm
07:40 AM 46.0°F7.8°C 43.8°F6.6°C 92% 10.5 mph S16.9 kmh S 19.0 mph30.6 kmh 29.50 in999.0 mb 0.10 in2.5 mm 0.12 in3.0 mm 0.65 in16.5 mm
07:50 AM 45.7°F7.6°C 43.5°F6.4°C 92% 10.2 mph S16.4 kmh S 20.8 mph33.5 kmh 29.50 in999.0 mb 0.10 in2.5 mm 0.00 in0.0 mm 0.67 in17.0 mm
08:00 AM 45.9°F7.7°C 43.7°F6.5°C 92% 10.7 mph SSE17.2 kmh SSE 15.7 mph25.3 kmh 29.50 in999.0 mb 0.10 in2.5 mm 0.00 in0.0 mm 0.69 in17.5 mm
08:10 AM 46.0°F7.8°C 43.8°F6.6°C 92% 9.2 mph S14.8 kmh S 11.9 mph19.2 kmh 29.50 in999.0 mb 0.10 in2.5 mm 0.00 in0.0 mm 0.69 in17.5 mm
08:20 AM 46.0°F7.8°C 43.8°F6.6°C 92% 7.1 mph S11.4 kmh S 8.3 mph13.4 kmh 29.52 in999.7 mb 0.08 in2.0 mm 0.00 in0.0 mm 0.69 in17.5 mm
08:30 AM 45.9°F7.7°C 43.7°F6.5°C 92% 3.1 mph S5.0 kmh S 9.2 mph14.8 kmh 29.52 in999.7 mb 0.08 in2.0 mm 0.00 in0.0 mm 0.71 in18.0 mm
08:40 AM 46.0°F7.8°C 43.8°F6.6°C 92% 6.0 mph SSE9.7 kmh SSE 9.2 mph14.8 kmh 29.52 in999.7 mb 0.08 in2.0 mm 0.00 in0.0 mm 0.73 in18.5 mm
08:50 AM 46.0°F7.8°C 43.8°F6.6°C 92% 10.5 mph SSW16.9 kmh SSW 14.3 mph23.0 kmh 29.52 in999.7 mb 0.08 in2.0 mm 0.00 in0.0 mm 0.75 in19.1 mm
09:00 AM 46.0°F7.8°C 43.8°F6.6°C 92% 10.1 mph SSW16.3 kmh SSW 14.3 mph23.0 kmh 29.53 in1000.0 mb 0.06 in1.5 mm 0.00 in0.0 mm 0.75 in19.1 mm
09:10 AM 46.0°F7.8°C 43.8°F6.6°C 92% 3.7 mph SW6.0 kmh SW 7.2 mph11.6 kmh 29.53 in1000.0 mb 0.08 in2.0 mm 0.12 in3.0 mm 0.78 in19.8 mm
09:20 AM 45.9°F7.7°C 44.0°F6.7°C 93% 2.0 mph SSW3.2 kmh SSW 7.2 mph11.6 kmh 29.55 in1000.7 mb 0.10 in2.5 mm 0.12 in3.0 mm 0.80 in20.3 mm
09:30 AM 45.0°F7.2°C 43.3°F6.3°C 94% 2.2 mph SW3.5 kmh SW 5.4 mph8.7 kmh 29.56 in1001.0 mb 0.10 in2.5 mm 0.00 in0.0 mm 0.82 in20.8 mm
09:40 AM 44.2°F6.8°C 42.6°F5.9°C 94% 5.4 mph SW8.7 kmh SW 13.4 mph21.6 kmh 29.56 in1001.0 mb 0.10 in2.5 mm 0.00 in0.0 mm 0.84 in21.3 mm
09:50 AM 43.5°F6.4°C 41.9°F5.5°C 94% 2.0 mph WSW3.2 kmh WSW 6.9 mph11.1 kmh 29.56 in1001.0 mb 0.12 in3.0 mm 0.12 in3.0 mm 0.88 in22.4 mm
10:00 AM 43.5°F6.4°C 42.2°F5.7°C 95% 3.3 mph SW5.3 kmh SW 4.3 mph6.9 kmh 29.57 in1001.4 mb 0.14 in3.6 mm 0.02 in0.5 mm 0.90 in22.9 mm
10:10 AM 43.5°F6.4°C 42.2°F5.7°C 95% 9.2 mph WSW14.8 kmh WSW 12.8 mph20.6 kmh 29.58 in1001.7 mb 0.12 in3.0 mm 0.00 in0.0 mm 0.90 in22.9 mm
10:20 AM 43.3°F6.3°C 42.0°F5.6°C 95% 2.0 mph NW3.2 kmh NW 6.5 mph10.5 kmh 29.58 in1001.7 mb 0.12 in3.0 mm 0.00 in0.0 mm 0.92 in23.4 mm
10:30 AM 43.2°F6.2°C 41.8°F5.4°C 95% 2.9 mph WSW4.7 kmh WSW 9.2 mph14.8 kmh 29.59 in1002.0 mb 0.10 in2.5 mm 0.00 in0.0 mm 0.92 in23.4 mm
10:40 AM 43.2°F6.2°C 41.8°F5.4°C 95% 1.1 mph WNW1.8 kmh WNW 2.9 mph4.7 kmh 29.60 in1002.4 mb 0.10 in2.5 mm 0.00 in0.0 mm 0.94 in23.9 mm
10:50 AM 43.2°F6.2°C 41.6°F5.3°C 94% 2.9 mph SW4.7 kmh SW 13.4 mph21.6 kmh 29.60 in1002.4 mb 0.08 in2.0 mm 0.00 in0.0 mm 0.96 in24.4 mm
11:00 AM 43.0°F6.1°C 41.4°F5.2°C 94% 3.7 mph NNW6.0 kmh NNW 12.3 mph19.8 kmh 29.61 in1002.7 mb 0.06 in1.5 mm 0.00 in0.0 mm 0.96 in24.4 mm
11:10 AM 43.0°F6.1°C 41.4°F5.2°C 94% 2.8 mph NNW4.5 kmh NNW 9.2 mph14.8 kmh 29.61 in1002.7 mb 0.08 in2.0 mm 0.12 in3.0 mm 0.98 in24.9 mm
11:20 AM 43.2°F6.2°C 41.6°F5.3°C 94% 0.3 mph WNW0.5 kmh WNW 4.3 mph6.9 kmh 29.61 in1002.7 mb 0.06 in1.5 mm 0.00 in0.0 mm 0.98 in24.9 mm
11:30 AM 43.2°F6.2°C 41.6°F5.3°C 94% 0.2 mph SSE0.3 kmh SSE 1.1 mph1.8 kmh 29.60 in1002.4 mb 0.06 in1.5 mm 0.00 in0.0 mm 0.98 in24.9 mm
11:40 AM 43.0°F6.1°C 41.4°F5.2°C 94% 0.2 mph SSE0.3 kmh SSE 1.1 mph1.8 kmh 29.61 in1002.7 mb 0.02 in0.5 mm 0.00 in0.0 mm 0.98 in24.9 mm
11:50 AM 43.0°F6.1°C 41.4°F5.2°C 94% 0.9 mph WSW1.4 kmh WSW 3.4 mph5.5 kmh 29.61 in1002.7 mb 0.02 in0.5 mm 0.00 in0.0 mm 0.98 in24.9 mm
12:00 PM 42.8°F6.0°C 41.2°F5.1°C 94% 0.1 mph N0.2 kmh N 2.2 mph3.5 kmh 29.60 in1002.4 mb 0.02 in0.5 mm 0.00 in0.0 mm 0.98 in24.9 mm
12:10 PM 43.0°F6.1°C 41.4°F5.2°C 94% 4.3 mph NNW6.9 kmh NNW 13.0 mph20.9 kmh 29.60 in1002.4 mb 0.00 in0.0 mm 0.00 in0.0 mm 0.98 in24.9 mm
12:20 PM 43.0°F6.1°C 41.4°F5.2°C 94% 1.9 mph NW3.1 kmh NW 13.0 mph20.9 kmh 29.61 in1002.7 mb 0.00 in0.0 mm 0.00 in0.0 mm 0.98 in24.9 mm
12:30 PM 42.6°F5.9°C 41.3°F5.2°C 95% 2.3 mph WNW3.7 kmh WNW 6.7 mph10.8 kmh 29.61 in1002.7 mb 0.00 in0.0 mm 0.00 in0.0 mm 0.98 in24.9 mm
12:40 PM 42.6°F5.9°C 41.3°F5.2°C 95% Calm Calm -- 29.62 in1003.0 mb 0.02 in0.5 mm 0.12 in3.0 mm 1.00 in25.4 mm
12:50 PM 42.6°F5.9°C 41.3°F5.2°C 95% 3.1 mph NW5.0 kmh NW 12.5 mph20.1 kmh 29.62 in1003.0 mb 0.02 in0.5 mm 0.00 in0.0 mm 1.00 in25.4 mm
01:00 PM 42.6°F5.9°C 41.3°F5.2°C 95% 2.6 mph NW4.2 kmh NW 6.7 mph10.8 kmh 29.61 in1002.7 mb 0.04 in1.0 mm 0.02 in0.5 mm 1.02 in25.9 mm
01:10 PM 43.0°F6.1°C 41.6°F5.3°C 95% 1.6 mph NNW2.6 kmh NNW 5.4 mph8.7 kmh 29.61 in1002.7 mb 0.04 in1.0 mm 0.00 in0.0 mm 1.02 in25.9 mm
01:20 PM 43.3°F6.3°C 42.0°F5.6°C 95% 0.4 mph N0.6 kmh N 3.8 mph6.1 kmh 29.60 in1002.4 mb 0.04 in1.0 mm 0.00 in0.0 mm 1.02 in25.9 mm
01:30 PM 43.9°F6.6°C 42.5°F5.8°C 95% 0.8 mph NNW1.3 kmh NNW 3.8 mph6.1 kmh 29.61 in1002.7 mb 0.04 in1.0 mm 0.00 in0.0 mm 1.02 in25.9 mm
01:40 PM 43.5°F6.4°C 41.9°F5.5°C 94% 0.2 mph NW0.3 kmh NW 1.1 mph1.8 kmh 29.61 in1002.7 mb 0.02 in0.5 mm 0.00 in0.0 mm 1.02 in25.9 mm
01:50 PM 43.2°F6.2°C 41.8°F5.4°C 95% 0.1 mph NW0.2 kmh NW 1.1 mph1.8 kmh 29.61 in1002.7 mb 0.02 in0.5 mm 0.00 in0.0 mm 1.02 in25.9 mm
02:00 PM 43.0°F6.1°C 41.6°F5.3°C 95% Calm Calm -- 29.61 in1002.7 mb 0.00 in0.0 mm 0.00 in0.0 mm 1.02 in25.9 mm
02:10 PM 43.0°F6.1°C 41.6°F5.3°C 95% Calm Calm -- 29.60 in1002.4 mb 0.00 in0.0 mm 0.00 in0.0 mm 1.02 in25.9 mm
02:20 PM 42.6°F5.9°C 41.3°F5.2°C 95% 0.2 mph NNW0.3 kmh NNW 1.6 mph2.6 kmh 29.61 in1002.7 mb 0.00 in0.0 mm 0.00 in0.0 mm 1.02 in25.9 mm
02:30 PM 43.0°F6.1°C 41.6°F5.3°C 95% 0.2 mph NNW0.3 kmh NNW 1.6 mph2.6 kmh 29.61 in1002.7 mb 0.02 in0.5 mm 0.12 in3.0 mm 1.04 in26.4 mm
02:40 PM 42.6°F5.9°C 41.3°F5.2°C 95% Calm Calm -- 29.62 in1003.0 mb 0.02 in0.5 mm 0.00 in0.0 mm 1.04 in26.4 mm
02:50 PM 42.6°F5.9°C 41.3°F5.2°C 95% Calm Calm -- 29.62 in1003.0 mb 0.02 in0.5 mm 0.00 in0.0 mm 1.04 in26.4 mm
03:00 PM 42.6°F5.9°C 41.3°F5.2°C 95% 0.2 mph N0.3 kmh N 1.1 mph1.8 kmh 29.61 in1002.7 mb 0.02 in0.5 mm 0.00 in0.0 mm 1.04 in26.4 mm
03:10 PM 42.1°F5.6°C 40.8°F4.9°C 95% 1.6 mph N2.6 kmh N 4.9 mph7.9 kmh 29.62 in1003.0 mb 0.02 in0.5 mm 0.00 in0.0 mm 1.04 in26.4 mm
03:20 PM 41.5°F5.3°C 40.2°F4.6°C 95% 2.0 mph N3.2 kmh N 3.8 mph6.1 kmh 29.62 in1003.0 mb 0.02 in0.5 mm 0.00 in0.0 mm 1.04 in26.4 mm
03:30 PM 41.4°F5.2°C 39.8°F4.3°C 94% 1.4 mph N2.3 kmh N 4.9 mph7.9 kmh 29.62 in1003.0 mb 0.00 in0.0 mm 0.00 in0.0 mm 1.04 in26.4 mm
03:40 PM 41.2°F5.1°C 39.6°F4.2°C 94% 1.9 mph N3.1 kmh N 5.6 mph9.0 kmh 29.62 in1003.0 mb 0.00 in0.0 mm 0.00 in0.0 mm 1.04 in26.4 mm
03:50 PM 41.2°F5.1°C 39.6°F4.2°C 94% 0.6 mph NNE1.0 kmh NNE 2.7 mph4.3 kmh 29.62 in1003.0 mb 0.02 in0.5 mm 0.12 in3.0 mm 1.06 in26.9 mm
04:00 PM 41.2°F5.1°C 39.6°F4.2°C 94% 1.4 mph NE2.3 kmh NE 3.1 mph5.0 kmh 29.61 in1002.7 mb 0.04 in1.0 mm 0.02 in0.5 mm 1.08 in27.4 mm
04:10 PM 40.8°F4.9°C 39.0°F3.9°C 93% 3.0 mph NNE4.8 kmh NNE 6.3 mph10.1 kmh 29.62 in1003.0 mb 0.04 in1.0 mm 0.00 in0.0 mm 1.08 in27.4 mm
04:20 PM 40.3°F4.6°C 38.4°F3.6°C 93% 1.1 mph NNE1.8 kmh NNE 3.1 mph5.0 kmh 29.62 in1003.0 mb 0.06 in1.5 mm 0.12 in3.0 mm 1.10 in27.9 mm
04:30 PM 40.1°F4.5°C 38.2°F3.4°C 93% 1.0 mph NNE1.6 kmh NNE 2.5 mph4.0 kmh 29.61 in1002.7 mb 0.08 in2.0 mm 0.12 in3.0 mm 1.12 in28.4 mm
04:40 PM 40.3°F4.6°C 38.1°F3.4°C 92% 0.3 mph NNE0.5 kmh NNE 1.3 mph2.1 kmh 29.61 in1002.7 mb 0.08 in2.0 mm 0.00 in0.0 mm 1.12 in28.4 mm
04:50 PM 40.1°F4.5°C 37.7°F3.2°C 91% 0.2 mph NE0.3 kmh NE 1.1 mph1.8 kmh 29.61 in1002.7 mb 0.10 in2.5 mm 0.12 in3.0 mm 1.16 in29.5 mm
05:00 PM 39.7°F4.3°C 37.3°F2.9°C 91% Calm Calm -- 29.61 in1002.7 mb 0.10 in2.5 mm 0.00 in0.0 mm 1.18 in30.0 mm
05:10 PM 39.6°F4.2°C 37.4°F3.0°C 92% Calm Calm -- 29.61 in1002.7 mb 0.10 in2.5 mm 0.00 in0.0 mm 1.18 in30.0 mm
05:20 PM 39.6°F4.2°C 37.4°F3.0°C 92% Calm Calm -- 29.62 in1003.0 mb 0.08 in2.0 mm 0.00 in0.0 mm 1.18 in30.0 mm
05:30 PM 39.7°F4.3°C 37.6°F3.1°C 92% Calm Calm -- 29.61 in1002.7 mb 0.08 in2.0 mm 0.00 in0.0 mm 1.20 in30.5 mm
05:40 PM 39.4°F4.1°C 37.5°F3.1°C 93% Calm Calm -- 29.62 in1003.0 mb 0.06 in1.5 mm 0.00 in0.0 mm 1.20 in30.5 mm
05:50 PM 39.4°F4.1°C 37.5°F3.1°C 93% Calm Calm -- 29.62 in1003.0 mb 0.06 in1.5 mm 0.00 in0.0 mm 1.22 in31.0 mm
06:00 PM 39.4°F4.1°C 37.5°F3.1°C 93% 0.3 mph SSE0.5 kmh SSE 1.6 mph2.6 kmh 29.62 in1003.0 mb 0.06 in1.5 mm 0.00 in0.0 mm 1.24 in31.5 mm
06:10 PM 39.2°F4.0°C 37.3°F2.9°C 93% Calm Calm -- 29.62 in1003.0 mb 0.06 in1.5 mm 0.00 in0.0 mm 1.24 in31.5 mm
06:20 PM 38.8°F3.8°C 37.3°F2.9°C 94% 1.7 mph ESE2.7 kmh ESE 4.7 mph7.6 kmh 29.62 in1003.0 mb 0.06 in1.5 mm 0.00 in0.0 mm 1.24 in31.5 mm
06:30 PM 38.8°F3.8°C 37.3°F2.9°C 94% 3.3 mph E5.3 kmh E 4.0 mph6.4 kmh 29.62 in1003.0 mb 0.06 in1.5 mm 0.00 in0.0 mm 1.26 in32.0 mm
06:40 PM 38.8°F3.8°C 37.3°F2.9°C 94% 1.5 mph ESE2.4 kmh ESE 4.0 mph6.4 kmh 29.60 in1002.4 mb 0.08 in2.0 mm 0.12 in3.0 mm 1.29 in32.8 mm
06:50 PM 38.8°F3.8°C 37.3°F2.9°C 94% 2.1 mph SE3.4 kmh SE 5.8 mph9.3 kmh 29.60 in1002.4 mb 0.06 in1.5 mm 0.00 in0.0 mm 1.29 in32.8 mm
07:00 PM 38.7°F3.7°C 37.1°F2.8°C 94% 2.7 mph ESE4.3 kmh ESE 6.5 mph10.5 kmh 29.60 in1002.4 mb 0.04 in1.0 mm 0.00 in0.0 mm 1.29 in32.8 mm
07:10 PM 38.5°F3.6°C 37.2°F2.9°C 95% Calm Calm -- 29.59 in1002.0 mb 0.04 in1.0 mm 0.00 in0.0 mm 1.29 in32.8 mm
07:20 PM 38.8°F3.8°C 37.3°F2.9°C 94% 5.2 mph E8.4 kmh E 7.6 mph12.2 kmh 29.59 in1002.0 mb 0.06 in1.5 mm 0.12 in3.0 mm 1.31 in33.3 mm
07:30 PM 39.0°F3.9°C 37.4°F3.0°C 94% 7.5 mph ESE12.1 kmh ESE 13.2 mph21.2 kmh 29.58 in1001.7 mb 0.04 in1.0 mm 0.00 in0.0 mm 1.31 in33.3 mm
07:40 PM 39.0°F3.9°C 37.4°F3.0°C 94% 5.4 mph SE8.7 kmh SE 8.9 mph14.3 kmh 29.58 in1001.7 mb 0.02 in0.5 mm 0.00 in0.0 mm 1.31 in33.3 mm
07:50 PM 39.0°F3.9°C 37.4°F3.0°C 94% 8.6 mph ESE13.8 kmh ESE 12.1 mph19.5 kmh 29.60 in1002.4 mb 0.04 in1.0 mm 0.12 in3.0 mm 1.33 in33.8 mm
08:00 PM 38.8°F3.8°C 37.3°F2.9°C 94% 1.6 mph SE2.6 kmh SE 6.3 mph10.1 kmh 29.60 in1002.4 mb 0.04 in1.0 mm 0.00 in0.0 mm 1.33 in33.8 mm
08:10 PM 38.7°F3.7°C 37.1°F2.8°C 94% 7.1 mph ESE11.4 kmh ESE 16.1 mph25.9 kmh 29.59 in1002.0 mb 0.08 in2.0 mm 0.24 in6.1 mm 1.37 in34.8 mm
08:20 PM 38.5°F3.6°C 36.9°F2.7°C 94% 8.7 mph ESE14.0 kmh ESE 12.1 mph19.5 kmh 29.58 in1001.7 mb 0.10 in2.5 mm 0.12 in3.0 mm 1.41 in35.8 mm
08:30 PM 38.1°F3.4°C 36.5°F2.5°C 94% 12.1 mph ESE19.5 kmh ESE 16.8 mph27.0 kmh 29.57 in1001.4 mb 0.12 in3.0 mm 0.12 in3.0 mm 1.43 in36.3 mm
08:40 PM 38.3°F3.5°C 36.7°F2.6°C 94% 2.1 mph E3.4 kmh E 6.9 mph11.1 kmh 29.58 in1001.7 mb 0.14 in3.6 mm 0.12 in3.0 mm 1.45 in36.8 mm
08:50 PM 38.1°F3.4°C 36.5°F2.5°C 94% 1.2 mph E1.9 kmh E 4.9 mph7.9 kmh 29.58 in1001.7 mb 0.12 in3.0 mm 0.00 in0.0 mm 1.45 in36.8 mm
09:00 PM 37.9°F3.3°C 36.4°F2.4°C 94% 3.0 mph E4.8 kmh E 7.4 mph11.9 kmh 29.57 in1001.4 mb 0.14 in3.6 mm 0.02 in0.5 mm 1.47 in37.3 mm
09:10 PM 38.1°F3.4°C 36.5°F2.5°C 94% 0.4 mph ESE0.6 kmh ESE 2.0 mph3.2 kmh 29.58 in1001.7 mb 0.08 in2.0 mm 0.00 in0.0 mm 1.47 in37.3 mm
09:20 PM 37.9°F3.3°C 36.4°F2.4°C 94% Calm Calm -- 29.57 in1001.4 mb 0.08 in2.0 mm 0.00 in0.0 mm 1.49 in37.8 mm
09:30 PM 37.9°F3.3°C 36.4°F2.4°C 94% 0.2 mph ESE0.3 kmh ESE 1.1 mph1.8 kmh 29.58 in1001.7 mb 0.08 in2.0 mm 0.00 in0.0 mm 1.51 in38.4 mm
09:40 PM 37.8°F3.2°C 36.2°F2.3°C 94% 0.1 mph E0.2 kmh E 0.7 mph1.1 kmh 29.57 in1001.4 mb 0.06 in1.5 mm 0.00 in0.0 mm 1.51 in38.4 mm
09:50 PM 37.9°F3.3°C 36.6°F2.6°C 95% 1.3 mph ENE2.1 kmh ENE 4.0 mph6.4 kmh 29.55 in1000.7 mb 0.08 in2.0 mm 0.12 in3.0 mm 1.53 in38.9 mm
10:00 PM 38.1°F3.4°C 36.8°F2.7°C 95% Calm Calm -- 29.56 in1001.0 mb 0.08 in2.0 mm 0.00 in0.0 mm 1.55 in39.4 mm
10:10 PM 37.9°F3.3°C 36.6°F2.6°C 95% Calm Calm -- 29.56 in1001.0 mb 0.10 in2.5 mm 0.12 in3.0 mm 1.57 in39.9 mm
10:20 PM 37.9°F3.3°C 36.6°F2.6°C 95% Calm Calm -- 29.56 in1001.0 mb 0.08 in2.0 mm 0.00 in0.0 mm 1.57 in39.9 mm
10:30 PM 38.1°F3.4°C 36.8°F2.7°C 95% 0.4 mph E0.6 kmh E 1.8 mph2.9 kmh 29.56 in1001.0 mb 0.10 in2.5 mm 0.12 in3.0 mm 1.61 in40.9 mm
10:40 PM 38.1°F3.4°C 36.8°F2.7°C 95% 1.1 mph NE1.8 kmh NE 4.0 mph6.4 kmh 29.55 in1000.7 mb 0.12 in3.0 mm 0.12 in3.0 mm 1.63 in41.4 mm
10:50 PM 38.5°F3.6°C 37.2°F2.9°C 95% 1.3 mph ESE2.1 kmh ESE 5.4 mph8.7 kmh 29.54 in1000.3 mb 0.14 in3.6 mm 0.12 in3.0 mm 1.67 in42.4 mm
11:00 PM 38.1°F3.4°C 36.8°F2.7°C 95% Calm Calm -- 29.55 in1000.7 mb 0.16 in4.1 mm 0.02 in0.5 mm 1.71 in43.4 mm
11:10 PM 37.9°F3.3°C 36.6°F2.6°C 95% Calm Calm -- 29.54 in1000.3 mb 0.19 in4.8 mm 0.18 in4.6 mm 1.75 in44.5 mm
11:20 PM 38.1°F3.4°C 36.8°F2.7°C 95% 0.6 mph N1.0 kmh N 2.2 mph3.5 kmh 29.54 in1000.3 mb 0.20 in5.1 mm 0.06 in1.5 mm 1.77 in45.0 mm
11:30 PM 38.1°F3.4°C 36.8°F2.7°C 95% 0.1 mph N0.2 kmh N 0.9 mph1.4 kmh 29.53 in1000.0 mb 0.19 in4.8 mm 0.00 in0.0 mm 1.79 in45.5 mm
11:40 PM 38.3°F3.5°C 37.0°F2.8°C 95% Calm Calm -- 29.54 in1000.3 mb 0.16 in4.1 mm 0.00 in0.0 mm 1.81 in46.0 mm
11:50 PM 38.1°F3.4°C 37.1°F2.8°C 96% Calm Calm -- 29.53 in1000.0 mb 0.20 in5.1 mm 0.24 in6.1 mm 1.88 in47.8 mm